sensor_id;sensor_type;location;lat;lon;timestamp;temperature;humidity
56234;DHT22;42141;53.240;6.580;2023-04-06T00:01:00;2.50;99.90
56234;DHT22;42141;53.240;6.580;2023-04-06T00:03:26;2.50;99.90
56234;DHT22;42141;53.240;6.580;2023-04-06T00:05:52;2.50;99.90
56234;DHT22;42141;53.240;6.580;2023-04-06T00:08:17;2.60;99.90
56234;DHT22;42141;53.240;6.580;2023-04-06T00:10:43;2.40;99.90
56234;DHT22;42141;53.240;6.580;2023-04-06T00:13:09;2.40;99.90
56234;DHT22;42141;53.240;6.580;2023-04-06T00:15:35;2.40;99.90
56234;DHT22;42141;53.240;6.580;2023-04-06T00:18:02;2.30;99.90
56234;DHT22;42141;53.240;6.580;2023-04-06T00:20:28;2.30;99.90
56234;DHT22;42141;53.240;6.580;2023-04-06T00:22:54;2.30;99.90
56234;DHT22;42141;53.240;6.580;2023-04-06T00:25:19;3.10;99.90
56234;DHT22;42141;53.240;6.580;2023-04-06T00:27:45;2.10;99.90
56234;DHT22;42141;53.240;6.580;2023-04-06T00:30:11;2.50;99.90
56234;DHT22;42141;53.240;6.580;2023-04-06T00:32:37;2.10;99.90
56234;DHT22;42141;53.240;6.580;2023-04-06T00:35:04;2.30;99.90
56234;DHT22;42141;53.240;6.580;2023-04-06T00:37:30;2.00;99.90
56234;DHT22;42141;53.240;6.580;2023-04-06T00:39:56;2.00;99.90
56234;DHT22;42141;53.240;6.580;2023-04-06T00:42:23;2.60;99.90
56234;DHT22;42141;53.240;6.580;2023-04-06T00:44:53;2.50;99.90
56234;DHT22;42141;53.240;6.580;2023-04-06T00:47:20;1.80;99.90
56234;DHT22;42141;53.240;6.580;2023-04-06T00:49:46;2.50;99.90
56234;DHT22;42141;53.240;6.580;2023-04-06T00:52:12;2.40;99.90
56234;DHT22;42141;53.240;6.580;2023-04-06T00:54:38;1.90;99.90
56234;DHT22;42141;53.240;6.580;2023-04-06T00:57:04;2.00;99.90
56234;DHT22;42141;53.240;6.580;2023-04-06T00:59:29;1.70;99.90
56234;DHT22;42141;53.240;6.580;2023-04-06T01:01:55;1.80;99.90
56234;DHT22;42141;53.240;6.580;2023-04-06T01:04:21;1.60;99.90
56234;DHT22;42141;53.240;6.580;2023-04-06T01:06:50;1.60;99.90
56234;DHT22;42141;53.240;6.580;2023-04-06T01:09:16;2.70;99.90
56234;DHT22;42141;53.240;6.580;2023-04-06T01:11:42;1.50;99.90
56234;DHT22;42141;53.240;6.580;2023-04-06T01:14:08;2.30;99.90
56234;DHT22;42141;53.240;6.580;2023-04-06T01:16:35;1.50;99.90
56234;DHT22;42141;53.240;6.580;2023-04-06T01:19:01;2.30;99.90
56234;DHT22;42141;53.240;6.580;2023-04-06T01:21:27;2.30;99.90
56234;DHT22;42141;53.240;6.580;2023-04-06T01:23:52;1.40;99.90
56234;DHT22;42141;53.240;6.580;2023-04-06T01:26:18;1.80;99.90
56234;DHT22;42141;53.240;6.580;2023-04-06T01:28:44;1.50;99.90
56234;DHT22;42141;53.240;6.580;2023-04-06T01:31:10;1.90;99.90
56234;DHT22;42141;53.240;6.580;2023-04-06T01:33:36;1.30;99.90
56234;DHT22;42141;53.240;6.580;2023-04-06T01:36:03;2.20;99.90
56234;DHT22;42141;53.240;6.580;2023-04-06T01:38:29;1.20;99.90
56234;DHT22;42141;53.240;6.580;2023-04-06T01:40:54;1.20;99.90
56234;DHT22;42141;53.240;6.580;2023-04-06T01:43:20;1.20;99.90
56234;DHT22;42141;53.240;6.580;2023-04-06T01:45:46;1.20;99.90
56234;DHT22;42141;53.240;6.580;2023-04-06T01:48:12;1.20;99.90
56234;DHT22;42141;53.240;6.580;2023-04-06T01:50:38;1.20;99.90
56234;DHT22;42141;53.240;6.580;2023-04-06T01:53:03;1.10;99.90
56234;DHT22;42141;53.240;6.580;2023-04-06T01:55:29;1.90;99.90
56234;DHT22;42141;53.240;6.580;2023-04-06T01:57:55;1.10;99.90
56234;DHT22;42141;53.240;6.580;2023-04-06T02:00:20;1.00;99.90
56234;DHT22;42141;53.240;6.580;2023-04-06T02:02:46;1.00;99.90
56234;DHT22;42141;53.240;6.580;2023-04-06T02:05:12;1.30;99.90
56234;DHT22;42141;53.240;6.580;2023-04-06T02:07:38;1.00;99.90
56234;DHT22;42141;53.240;6.580;2023-04-06T02:10:04;2.20;99.90
56234;DHT22;42141;53.240;6.580;2023-04-06T02:12:30;1.00;99.90
56234;DHT22;42141;53.240;6.580;2023-04-06T02:14:55;1.00;99.90
56234;DHT22;42141;53.240;6.580;2023-04-06T02:17:21;1.10;99.90
56234;DHT22;42141;53.240;6.580;2023-04-06T02:19:47;1.20;99.90
56234;DHT22;42141;53.240;6.580;2023-04-06T02:22:13;1.00;99.90
56234;DHT22;42141;53.240;6.580;2023-04-06T02:24:38;0.90;99.90
56234;DHT22;42141;53.240;6.580;2023-04-06T02:27:04;1.80;99.90
56234;DHT22;42141;53.240;6.580;2023-04-06T02:29:30;1.10;99.90
56234;DHT22;42141;53.240;6.580;2023-04-06T02:31:56;0.90;99.90
56234;DHT22;42141;53.240;6.580;2023-04-06T02:34:21;1.90;99.90
56234;DHT22;42141;53.240;6.580;2023-04-06T02:36:47;0.90;99.90
56234;DHT22;42141;53.240;6.580;2023-04-06T02:39:14;0.90;99.90
56234;DHT22;42141;53.240;6.580;2023-04-06T02:41:39;0.80;99.90
56234;DHT22;42141;53.240;6.580;2023-04-06T02:44:08;0.80;99.90
56234;DHT22;42141;53.240;6.580;2023-04-06T02:46:34;0.90;99.90
56234;DHT22;42141;53.240;6.580;2023-04-06T02:49:00;1.10;99.90
56234;DHT22;42141;53.240;6.580;2023-04-06T02:51:29;0.80;99.90
56234;DHT22;42141;53.240;6.580;2023-04-06T02:53:55;0.80;99.90
56234;DHT22;42141;53.240;6.580;2023-04-06T02:56:21;0.80;99.90
56234;DHT22;42141;53.240;6.580;2023-04-06T02:58:47;0.70;99.90
56234;DHT22;42141;53.240;6.580;2023-04-06T03:01:13;0.70;99.90
56234;DHT22;42141;53.240;6.580;2023-04-06T03:03:38;0.90;99.90
56234;DHT22;42141;53.240;6.580;2023-04-06T03:06:04;1.10;99.90
56234;DHT22;42141;53.240;6.580;2023-04-06T03:08:30;0.70;99.90
56234;DHT22;42141;53.240;6.580;2023-04-06T03:10:56;1.60;99.90
56234;DHT22;42141;53.240;6.580;2023-04-06T03:13:21;0.60;99.90
56234;DHT22;42141;53.240;6.580;2023-04-06T03:15:47;1.90;99.90
56234;DHT22;42141;53.240;6.580;2023-04-06T03:18:13;0.60;99.90
56234;DHT22;42141;53.240;6.580;2023-04-06T03:20:38;1.00;99.90
56234;DHT22;42141;53.240;6.580;2023-04-06T03:23:04;0.50;99.90
56234;DHT22;42141;53.240;6.580;2023-04-06T03:25:31;0.50;99.90
56234;DHT22;42141;53.240;6.580;2023-04-06T03:27:57;0.50;99.90
56234;DHT22;42141;53.240;6.580;2023-04-06T03:30:22;0.50;99.90
56234;DHT22;42141;53.240;6.580;2023-04-06T03:32:48;0.90;99.90
56234;DHT22;42141;53.240;6.580;2023-04-06T03:35:14;1.80;99.90
56234;DHT22;42141;53.240;6.580;2023-04-06T03:37:40;0.50;99.90
56234;DHT22;42141;53.240;6.580;2023-04-06T03:40:06;0.40;99.90
56234;DHT22;42141;53.240;6.580;2023-04-06T03:42:31;0.40;99.90
56234;DHT22;42141;53.240;6.580;2023-04-06T03:44:58;0.40;99.90
56234;DHT22;42141;53.240;6.580;2023-04-06T03:47:24;0.40;99.90
56234;DHT22;42141;53.240;6.580;2023-04-06T03:49:51;0.40;99.90
56234;DHT22;42141;53.240;6.580;2023-04-06T03:52:17;0.30;99.90
56234;DHT22;42141;53.240;6.580;2023-04-06T03:54:43;0.50;99.90
56234;DHT22;42141;53.240;6.580;2023-04-06T03:57:09;0.30;99.90
56234;DHT22;42141;53.240;6.580;2023-04-06T03:59:34;0.30;99.90
56234;DHT22;42141;53.240;6.580;2023-04-06T04:02:00;0.30;99.90
56234;DHT22;42141;53.240;6.580;2023-04-06T04:04:26;0.30;99.90
56234;DHT22;42141;53.240;6.580;2023-04-06T04:06:52;1.60;99.90
56234;DHT22;42141;53.240;6.580;2023-04-06T04:09:17;1.60;99.90
56234;DHT22;42141;53.240;6.580;2023-04-06T04:11:43;0.20;99.90
56234;DHT22;42141;53.240;6.580;2023-04-06T04:14:09;0.20;99.90
56234;DHT22;42141;53.240;6.580;2023-04-06T04:16:35;0.20;99.90
56234;DHT22;42141;53.240;6.580;2023-04-06T04:19:00;0.60;99.90
56234;DHT22;42141;53.240;6.580;2023-04-06T04:21:29;0.20;99.90
56234;DHT22;42141;53.240;6.580;2023-04-06T04:23:56;0.20;99.90
56234;DHT22;42141;53.240;6.580;2023-04-06T04:26:21;0.20;99.90
56234;DHT22;42141;53.240;6.580;2023-04-06T04:28:47;0.20;99.90
56234;DHT22;42141;53.240;6.580;2023-04-06T04:31:13;0.20;99.90
56234;DHT22;42141;53.240;6.580;2023-04-06T04:33:39;1.20;99.90
56234;DHT22;42141;53.240;6.580;2023-04-06T04:36:05;0.80;99.90
56234;DHT22;42141;53.240;6.580;2023-04-06T04:38:31;0.10;99.90
56234;DHT22;42141;53.240;6.580;2023-04-06T04:40:56;0.10;99.90
56234;DHT22;42141;53.240;6.580;2023-04-06T04:43:22;0.90;99.90
56234;DHT22;42141;53.240;6.580;2023-04-06T04:45:48;0.10;99.90
56234;DHT22;42141;53.240;6.580;2023-04-06T04:48:13;0.10;99.90
56234;DHT22;42141;53.240;6.580;2023-04-06T04:50:39;1.30;99.90
56234;DHT22;42141;53.240;6.580;2023-04-06T04:53:05;1.00;99.90
56234;DHT22;42141;53.240;6.580;2023-04-06T04:55:31;0.10;99.90
56234;DHT22;42141;53.240;6.580;2023-04-06T04:57:57;0.10;99.90
56234;DHT22;42141;53.240;6.580;2023-04-06T05:00:23;0.20;99.90
56234;DHT22;42141;53.240;6.580;2023-04-06T05:02:49;0.20;99.90
56234;DHT22;42141;53.240;6.580;2023-04-06T05:05:15;1.20;99.90
56234;DHT22;42141;53.240;6.580;2023-04-06T05:07:41;0.20;99.90
56234;DHT22;42141;53.240;6.580;2023-04-06T05:10:07;0.30;99.90
56234;DHT22;42141;53.240;6.580;2023-04-06T05:12:33;0.40;99.90
56234;DHT22;42141;53.240;6.580;2023-04-06T05:14:58;1.00;99.90
56234;DHT22;42141;53.240;6.580;2023-04-06T05:17:24;0.70;99.90
56234;DHT22;42141;53.240;6.580;2023-04-06T05:19:51;0.50;99.90
56234;DHT22;42141;53.240;6.580;2023-04-06T05:22:16;0.60;99.90
56234;DHT22;42141;53.240;6.580;2023-04-06T05:24:43;1.80;99.90
56234;DHT22;42141;53.240;6.580;2023-04-06T05:27:09;0.60;99.90
56234;DHT22;42141;53.240;6.580;2023-04-06T05:29:35;0.70;99.90
56234;DHT22;42141;53.240;6.580;2023-04-06T05:32:01;-0.30;99.90
56234;DHT22;42141;53.240;6.580;2023-04-06T05:34:27;0.80;99.90
56234;DHT22;42141;53.240;6.580;2023-04-06T05:36:53;0.80;99.90
56234;DHT22;42141;53.240;6.580;2023-04-06T05:39:18;0.80;99.90
56234;DHT22;42141;53.240;6.580;2023-04-06T05:41:44;0.90;99.90
56234;DHT22;42141;53.240;6.580;2023-04-06T05:44:10;0.90;99.90
56234;DHT22;42141;53.240;6.580;2023-04-06T05:46:36;1.60;99.90
56234;DHT22;42141;53.240;6.580;2023-04-06T05:49:02;2.30;99.90
56234;DHT22;42141;53.240;6.580;2023-04-06T05:51:27;1.10;99.90
56234;DHT22;42141;53.240;6.580;2023-04-06T05:53:53;1.30;99.90
56234;DHT22;42141;53.240;6.580;2023-04-06T05:56:19;1.20;99.90
56234;DHT22;42141;53.240;6.580;2023-04-06T05:58:44;1.30;99.90
56234;DHT22;42141;53.240;6.580;2023-04-06T06:01:10;1.40;99.90
56234;DHT22;42141;53.240;6.580;2023-04-06T06:03:36;2.40;99.90
56234;DHT22;42141;53.240;6.580;2023-04-06T06:06:03;2.70;99.90
56234;DHT22;42141;53.240;6.580;2023-04-06T06:08:30;1.60;99.90
56234;DHT22;42141;53.240;6.580;2023-04-06T06:10:56;2.10;99.90
56234;DHT22;42141;53.240;6.580;2023-04-06T06:13:23;3.00;99.90
56234;DHT22;42141;53.240;6.580;2023-04-06T06:15:49;1.80;99.90
56234;DHT22;42141;53.240;6.580;2023-04-06T06:18:15;1.90;99.90
56234;DHT22;42141;53.240;6.580;2023-04-06T06:20:40;2.00;99.90
56234;DHT22;42141;53.240;6.580;2023-04-06T06:23:06;2.10;99.90
56234;DHT22;42141;53.240;6.580;2023-04-06T06:25:32;2.20;99.90
56234;DHT22;42141;53.240;6.580;2023-04-06T06:27:58;3.20;99.90
56234;DHT22;42141;53.240;6.580;2023-04-06T06:30:25;2.90;99.90
56234;DHT22;42141;53.240;6.580;2023-04-06T06:32:51;2.80;99.90
56234;DHT22;42141;53.240;6.580;2023-04-06T06:35:17;2.60;99.90
56234;DHT22;42141;53.240;6.580;2023-04-06T06:37:43;2.90;99.90
56234;DHT22;42141;53.240;6.580;2023-04-06T06:40:10;2.80;99.90
56234;DHT22;42141;53.240;6.580;2023-04-06T06:42:38;2.90;99.90
56234;DHT22;42141;53.240;6.580;2023-04-06T06:45:06;3.00;99.90
56234;DHT22;42141;53.240;6.580;2023-04-06T06:47:32;3.10;99.90
56234;DHT22;42141;53.240;6.580;2023-04-06T06:49:58;3.20;99.90
56234;DHT22;42141;53.240;6.580;2023-04-06T06:52:23;3.30;99.90
56234;DHT22;42141;53.240;6.580;2023-04-06T06:54:49;3.50;99.90
56234;DHT22;42141;53.240;6.580;2023-04-06T06:57:15;3.50;99.90
56234;DHT22;42141;53.240;6.580;2023-04-06T06:59:41;3.70;99.90
56234;DHT22;42141;53.240;6.580;2023-04-06T07:02:07;3.70;99.90
56234;DHT22;42141;53.240;6.580;2023-04-06T07:04:32;3.80;99.90
56234;DHT22;42141;53.240;6.580;2023-04-06T07:06:58;3.90;99.90
56234;DHT22;42141;53.240;6.580;2023-04-06T07:09:24;4.00;99.90
56234;DHT22;42141;53.240;6.580;2023-04-06T07:11:51;4.10;99.90
56234;DHT22;42141;53.240;6.580;2023-04-06T07:14:17;4.20;99.90
56234;DHT22;42141;53.240;6.580;2023-04-06T07:16:43;4.30;99.90
56234;DHT22;42141;53.240;6.580;2023-04-06T07:19:10;4.50;99.90
56234;DHT22;42141;53.240;6.580;2023-04-06T07:21:36;4.70;99.90
56234;DHT22;42141;53.240;6.580;2023-04-06T07:24:02;4.70;99.90
56234;DHT22;42141;53.240;6.580;2023-04-06T07:26:28;4.80;99.90
56234;DHT22;42141;53.240;6.580;2023-04-06T07:28:53;5.00;99.90
56234;DHT22;42141;53.240;6.580;2023-04-06T07:31:19;5.10;99.90
56234;DHT22;42141;53.240;6.580;2023-04-06T07:33:45;5.20;99.90
56234;DHT22;42141;53.240;6.580;2023-04-06T07:36:12;5.30;99.90
56234;DHT22;42141;53.240;6.580;2023-04-06T07:38:38;5.50;99.90
56234;DHT22;42141;53.240;6.580;2023-04-06T07:41:03;5.60;99.90
56234;DHT22;42141;53.240;6.580;2023-04-06T07:43:29;5.70;99.90
56234;DHT22;42141;53.240;6.580;2023-04-06T07:45:56;5.80;99.90
56234;DHT22;42141;53.240;6.580;2023-04-06T07:48:23;6.00;99.90
56234;DHT22;42141;53.240;6.580;2023-04-06T07:50:49;6.10;99.90
56234;DHT22;42141;53.240;6.580;2023-04-06T07:53:15;6.20;99.90
56234;DHT22;42141;53.240;6.580;2023-04-06T07:55:41;6.40;99.90
56234;DHT22;42141;53.240;6.580;2023-04-06T07:58:06;6.50;99.90
56234;DHT22;42141;53.240;6.580;2023-04-06T08:00:32;6.60;99.90
56234;DHT22;42141;53.240;6.580;2023-04-06T08:02:58;6.70;99.90
56234;DHT22;42141;53.240;6.580;2023-04-06T08:05:24;6.90;99.90
56234;DHT22;42141;53.240;6.580;2023-04-06T08:07:49;7.00;99.90
56234;DHT22;42141;53.240;6.580;2023-04-06T08:10:15;7.10;99.90
56234;DHT22;42141;53.240;6.580;2023-04-06T08:12:41;7.20;99.90
56234;DHT22;42141;53.240;6.580;2023-04-06T08:15:07;7.30;99.90
56234;DHT22;42141;53.240;6.580;2023-04-06T08:17:33;7.50;99.90
56234;DHT22;42141;53.240;6.580;2023-04-06T08:19:59;7.60;99.90
56234;DHT22;42141;53.240;6.580;2023-04-06T08:22:25;7.70;99.90
56234;DHT22;42141;53.240;6.580;2023-04-06T08:24:51;7.80;99.90
56234;DHT22;42141;53.240;6.580;2023-04-06T08:27:17;8.00;99.90
56234;DHT22;42141;53.240;6.580;2023-04-06T08:29:43;8.10;99.90
56234;DHT22;42141;53.240;6.580;2023-04-06T08:32:09;8.20;99.90
56234;DHT22;42141;53.240;6.580;2023-04-06T08:34:34;8.40;99.90
56234;DHT22;42141;53.240;6.580;2023-04-06T08:37:00;9.50;99.90
56234;DHT22;42141;53.240;6.580;2023-04-06T08:39:27;8.60;99.90
56234;DHT22;42141;53.240;6.580;2023-04-06T08:41:53;8.70;99.90
56234;DHT22;42141;53.240;6.580;2023-04-06T08:44:22;8.90;99.90
56234;DHT22;42141;53.240;6.580;2023-04-06T08:46:48;9.00;99.90
56234;DHT22;42141;53.240;6.580;2023-04-06T08:49:16;9.10;99.90
56234;DHT22;42141;53.240;6.580;2023-04-06T08:51:42;9.20;99.90
56234;DHT22;42141;53.240;6.580;2023-04-06T08:54:08;9.30;99.90
56234;DHT22;42141;53.240;6.580;2023-04-06T08:56:37;9.40;99.90
56234;DHT22;42141;53.240;6.580;2023-04-06T08:59:04;9.50;99.90
56234;DHT22;42141;53.240;6.580;2023-04-06T09:01:34;9.60;99.90
56234;DHT22;42141;53.240;6.580;2023-04-06T09:04:05;9.70;99.90
56234;DHT22;42141;53.240;6.580;2023-04-06T09:06:34;9.90;99.90
56234;DHT22;42141;53.240;6.580;2023-04-06T09:09:02;9.90;99.90
56234;DHT22;42141;53.240;6.580;2023-04-06T09:11:28;10.10;99.90
56234;DHT22;42141;53.240;6.580;2023-04-06T09:13:55;10.20;99.90
56234;DHT22;42141;53.240;6.580;2023-04-06T09:16:22;10.40;98.90
56234;DHT22;42141;53.240;6.580;2023-04-06T09:18:48;10.50;98.60
56234;DHT22;42141;53.240;6.580;2023-04-06T09:21:17;10.70;98.30
56234;DHT22;42141;53.240;6.580;2023-04-06T09:23:43;10.90;98.00
56234;DHT22;42141;53.240;6.580;2023-04-06T09:28:49;11.20;97.10
56234;DHT22;42141;53.240;6.580;2023-04-06T09:31:35;11.50;95.80
56234;DHT22;42141;53.240;6.580;2023-04-06T09:34:01;11.70;95.00
56234;DHT22;42141;53.240;6.580;2023-04-06T09:36:35;11.80;95.10
56234;DHT22;42141;53.240;6.580;2023-04-06T09:39:04;12.10;94.70
56234;DHT22;42141;53.240;6.580;2023-04-06T09:41:35;12.20;94.30
56234;DHT22;42141;53.240;6.580;2023-04-06T09:46:34;12.10;89.90
56234;DHT22;42141;53.240;6.580;2023-04-06T09:49:02;11.90;89.00
56234;DHT22;42141;53.240;6.580;2023-04-06T09:51:37;11.80;89.60
56234;DHT22;42141;53.240;6.580;2023-04-06T09:54:03;11.80;89.40
56234;DHT22;42141;53.240;6.580;2023-04-06T09:59:38;11.80;87.50
56234;DHT22;42141;53.240;6.580;2023-04-06T10:02:11;11.80;87.80
56234;DHT22;42141;53.240;6.580;2023-04-06T10:04:52;11.70;88.80
56234;DHT22;42141;53.240;6.580;2023-04-06T10:07:20;11.70;87.00
56234;DHT22;42141;53.240;6.580;2023-04-06T10:09:46;11.70;87.80
56234;DHT22;42141;53.240;6.580;2023-04-06T10:12:13;11.70;88.30
56234;DHT22;42141;53.240;6.580;2023-04-06T10:14:39;11.70;89.10
56234;DHT22;42141;53.240;6.580;2023-04-06T10:17:06;11.80;89.20
56234;DHT22;42141;53.240;6.580;2023-04-06T10:19:46;11.80;89.20
56234;DHT22;42141;53.240;6.580;2023-04-06T10:22:22;11.90;88.80
56234;DHT22;42141;53.240;6.580;2023-04-06T10:24:49;12.00;87.90
56234;DHT22;42141;53.240;6.580;2023-04-06T10:27:15;12.10;89.00
56234;DHT22;42141;53.240;6.580;2023-04-06T10:29:47;12.20;88.60
56234;DHT22;42141;53.240;6.580;2023-04-06T10:32:16;12.20;87.10
56234;DHT22;42141;53.240;6.580;2023-04-06T10:34:42;12.40;88.00
56234;DHT22;42141;53.240;6.580;2023-04-06T10:37:14;12.50;87.50
56234;DHT22;42141;53.240;6.580;2023-04-06T10:39:56;12.60;85.70
56234;DHT22;42141;53.240;6.580;2023-04-06T10:42:35;12.60;84.30
56234;DHT22;42141;53.240;6.580;2023-04-06T10:45:01;12.70;86.30
56234;DHT22;42141;53.240;6.580;2023-04-06T10:47:27;12.80;86.40
56234;DHT22;42141;53.240;6.580;2023-04-06T10:49:52;12.90;86.30
56234;DHT22;42141;53.240;6.580;2023-04-06T10:52:18;12.90;85.60
56234;DHT22;42141;53.240;6.580;2023-04-06T10:54:44;13.00;85.40
56234;DHT22;42141;53.240;6.580;2023-04-06T10:57:10;13.10;84.60
56234;DHT22;42141;53.240;6.580;2023-04-06T10:59:42;13.20;83.30
56234;DHT22;42141;53.240;6.580;2023-04-06T11:02:08;13.20;82.40
56234;DHT22;42141;53.240;6.580;2023-04-06T11:04:34;13.20;82.20
56234;DHT22;42141;53.240;6.580;2023-04-06T11:07:00;13.10;81.90
56234;DHT22;42141;53.240;6.580;2023-04-06T11:09:27;13.10;81.50
56234;DHT22;42141;53.240;6.580;2023-04-06T11:11:54;13.10;80.70
56234;DHT22;42141;53.240;6.580;2023-04-06T11:14:20;13.00;79.60
56234;DHT22;42141;53.240;6.580;2023-04-06T11:16:47;12.90;79.70
56234;DHT22;42141;53.240;6.580;2023-04-06T11:19:16;13.00;80.20
56234;DHT22;42141;53.240;6.580;2023-04-06T11:21:45;13.10;80.50
56234;DHT22;42141;53.240;6.580;2023-04-06T11:24:23;13.20;80.70
56234;DHT22;42141;53.240;6.580;2023-04-06T11:26:56;13.40;78.80
56234;DHT22;42141;53.240;6.580;2023-04-06T11:29:25;13.40;78.60
56234;DHT22;42141;53.240;6.580;2023-04-06T11:32:10;13.50;75.70
56234;DHT22;42141;53.240;6.580;2023-04-06T11:34:37;13.40;70.50
56234;DHT22;42141;53.240;6.580;2023-04-06T11:37:07;13.30;72.80
56234;DHT22;42141;53.240;6.580;2023-04-06T11:39:50;13.30;72.40
56234;DHT22;42141;53.240;6.580;2023-04-06T11:42:27;13.40;70.70
56234;DHT22;42141;53.240;6.580;2023-04-06T11:45:00;13.40;71.30
56234;DHT22;42141;53.240;6.580;2023-04-06T11:47:30;13.60;71.40
56234;DHT22;42141;53.240;6.580;2023-04-06T11:50:08;13.80;69.00
56234;DHT22;42141;53.240;6.580;2023-04-06T11:52:34;13.90;69.00
56234;DHT22;42141;53.240;6.580;2023-04-06T11:55:14;14.00;69.60
56234;DHT22;42141;53.240;6.580;2023-04-06T11:57:40;14.20;68.80
56234;DHT22;42141;53.240;6.580;2023-04-06T12:00:08;14.20;68.30
56234;DHT22;42141;53.240;6.580;2023-04-06T12:02:38;14.20;68.10
56234;DHT22;42141;53.240;6.580;2023-04-06T12:05:05;14.10;67.50
56234;DHT22;42141;53.240;6.580;2023-04-06T12:07:32;14.10;67.90
56234;DHT22;42141;53.240;6.580;2023-04-06T12:09:59;14.00;67.10
56234;DHT22;42141;53.240;6.580;2023-04-06T12:12:25;13.90;66.60
56234;DHT22;42141;53.240;6.580;2023-04-06T12:14:51;13.90;66.70
56234;DHT22;42141;53.240;6.580;2023-04-06T12:17:18;13.90;66.50
56234;DHT22;42141;53.240;6.580;2023-04-06T12:19:44;14.00;66.80
56234;DHT22;42141;53.240;6.580;2023-04-06T12:22:10;14.00;66.50
56234;DHT22;42141;53.240;6.580;2023-04-06T12:24:36;14.00;66.20
56234;DHT22;42141;53.240;6.580;2023-04-06T12:27:01;14.00;65.40
56234;DHT22;42141;53.240;6.580;2023-04-06T12:29:27;14.00;65.10
56234;DHT22;42141;53.240;6.580;2023-04-06T12:31:53;13.90;65.20
56234;DHT22;42141;53.240;6.580;2023-04-06T12:34:19;13.80;65.50
56234;DHT22;42141;53.240;6.580;2023-04-06T12:36:44;13.90;65.80
56234;DHT22;42141;53.240;6.580;2023-04-06T12:39:10;13.90;66.00
56234;DHT22;42141;53.240;6.580;2023-04-06T12:41:37;13.80;66.00
56234;DHT22;42141;53.240;6.580;2023-04-06T12:44:05;13.80;65.80
56234;DHT22;42141;53.240;6.580;2023-04-06T12:46:31;13.70;65.10
56234;DHT22;42141;53.240;6.580;2023-04-06T12:48:57;13.60;65.10
56234;DHT22;42141;53.240;6.580;2023-04-06T12:51:27;13.60;65.20
56234;DHT22;42141;53.240;6.580;2023-04-06T12:53:53;13.60;64.50
56234;DHT22;42141;53.240;6.580;2023-04-06T12:56:19;13.50;64.00
56234;DHT22;42141;53.240;6.580;2023-04-06T12:58:46;13.40;63.50
56234;DHT22;42141;53.240;6.580;2023-04-06T13:01:12;13.40;63.40
56234;DHT22;42141;53.240;6.580;2023-04-06T13:03:42;13.40;63.40
56234;DHT22;42141;53.240;6.580;2023-04-06T13:06:08;13.40;63.70
56234;DHT22;42141;53.240;6.580;2023-04-06T13:08:34;13.40;63.60
56234;DHT22;42141;53.240;6.580;2023-04-06T13:11:01;13.40;63.90
56234;DHT22;42141;53.240;6.580;2023-04-06T13:13:28;13.40;63.80
56234;DHT22;42141;53.240;6.580;2023-04-06T13:15:59;13.40;63.40
56234;DHT22;42141;53.240;6.580;2023-04-06T13:18:26;13.40;63.10
56234;DHT22;42141;53.240;6.580;2023-04-06T13:20:52;13.30;63.40
56234;DHT22;42141;53.240;6.580;2023-04-06T13:23:18;13.40;63.90
56234;DHT22;42141;53.240;6.580;2023-04-06T13:25:43;13.50;63.80
56234;DHT22;42141;53.240;6.580;2023-04-06T13:28:10;13.50;64.20
56234;DHT22;42141;53.240;6.580;2023-04-06T13:30:35;13.50;64.50
56234;DHT22;42141;53.240;6.580;2023-04-06T13:33:02;13.50;63.40
56234;DHT22;42141;53.240;6.580;2023-04-06T13:35:27;13.50;63.30
56234;DHT22;42141;53.240;6.580;2023-04-06T13:37:53;13.40;63.30
56234;DHT22;42141;53.240;6.580;2023-04-06T13:40:19;13.40;63.50
56234;DHT22;42141;53.240;6.580;2023-04-06T13:42:47;13.30;63.40
56234;DHT22;42141;53.240;6.580;2023-04-06T13:45:12;13.40;63.70
56234;DHT22;42141;53.240;6.580;2023-04-06T13:47:38;13.40;64.10
56234;DHT22;42141;53.240;6.580;2023-04-06T13:50:04;13.40;63.80
56234;DHT22;42141;53.240;6.580;2023-04-06T13:52:30;13.50;63.50
56234;DHT22;42141;53.240;6.580;2023-04-06T13:54:56;13.50;64.10
56234;DHT22;42141;53.240;6.580;2023-04-06T13:57:22;13.50;64.40
56234;DHT22;42141;53.240;6.580;2023-04-06T13:59:48;13.50;63.70
56234;DHT22;42141;53.240;6.580;2023-04-06T14:02:15;13.50;63.80
56234;DHT22;42141;53.240;6.580;2023-04-06T14:04:41;13.50;64.00
56234;DHT22;42141;53.240;6.580;2023-04-06T14:07:07;13.40;64.20
56234;DHT22;42141;53.240;6.580;2023-04-06T14:09:34;13.40;64.00
56234;DHT22;42141;53.240;6.580;2023-04-06T14:12:00;13.50;64.60
56234;DHT22;42141;53.240;6.580;2023-04-06T14:14:27;13.50;64.80
56234;DHT22;42141;53.240;6.580;2023-04-06T14:16:54;13.50;64.80
56234;DHT22;42141;53.240;6.580;2023-04-06T14:19:20;13.50;65.40
56234;DHT22;42141;53.240;6.580;2023-04-06T14:21:48;13.40;65.60
56234;DHT22;42141;53.240;6.580;2023-04-06T14:24:17;13.30;66.30
56234;DHT22;42141;53.240;6.580;2023-04-06T14:26:46;13.20;67.00
56234;DHT22;42141;53.240;6.580;2023-04-06T14:29:21;13.30;67.70
56234;DHT22;42141;53.240;6.580;2023-04-06T14:31:50;13.30;68.50
56234;DHT22;42141;53.240;6.580;2023-04-06T14:34:21;13.50;69.20
56234;DHT22;42141;53.240;6.580;2023-04-06T14:36:55;13.60;68.70
56234;DHT22;42141;53.240;6.580;2023-04-06T14:39:22;13.70;69.40
56234;DHT22;42141;53.240;6.580;2023-04-06T14:41:49;13.80;69.10
56234;DHT22;42141;53.240;6.580;2023-04-06T14:44:16;13.80;69.20
56234;DHT22;42141;53.240;6.580;2023-04-06T14:46:42;13.70;69.00
56234;DHT22;42141;53.240;6.580;2023-04-06T14:49:08;13.60;69.30
56234;DHT22;42141;53.240;6.580;2023-04-06T14:51:34;13.60;70.00
56234;DHT22;42141;53.240;6.580;2023-04-06T14:54:01;13.50;70.30
56234;DHT22;42141;53.240;6.580;2023-04-06T14:56:31;13.50;71.10
56234;DHT22;42141;53.240;6.580;2023-04-06T14:59:00;13.30;71.60
56234;DHT22;42141;53.240;6.580;2023-04-06T15:01:33;13.20;72.40
56234;DHT22;42141;53.240;6.580;2023-04-06T15:03:59;13.10;73.40
56234;DHT22;42141;53.240;6.580;2023-04-06T15:06:24;13.00;74.50
56234;DHT22;42141;53.240;6.580;2023-04-06T15:08:51;12.80;75.30
56234;DHT22;42141;53.240;6.580;2023-04-06T15:11:16;12.70;76.40
56234;DHT22;42141;53.240;6.580;2023-04-06T15:13:42;12.70;77.30
56234;DHT22;42141;53.240;6.580;2023-04-06T15:16:08;12.60;77.70
56234;DHT22;42141;53.240;6.580;2023-04-06T15:18:34;12.40;78.20
56234;DHT22;42141;53.240;6.580;2023-04-06T15:21:01;12.30;79.40
56234;DHT22;42141;53.240;6.580;2023-04-06T15:23:27;12.20;80.40
56234;DHT22;42141;53.240;6.580;2023-04-06T15:25:55;12.10;81.30
56234;DHT22;42141;53.240;6.580;2023-04-06T15:28:21;12.10;82.70
56234;DHT22;42141;53.240;6.580;2023-04-06T15:30:47;12.00;84.10
56234;DHT22;42141;53.240;6.580;2023-04-06T15:33:13;12.00;85.00
56234;DHT22;42141;53.240;6.580;2023-04-06T15:35:38;11.90;85.30
56234;DHT22;42141;53.240;6.580;2023-04-06T15:38:08;11.90;86.00
56234;DHT22;42141;53.240;6.580;2023-04-06T15:40:34;11.70;87.00
56234;DHT22;42141;53.240;6.580;2023-04-06T15:43:06;11.70;88.60
56234;DHT22;42141;53.240;6.580;2023-04-06T15:45:32;11.60;89.80